sensor_id;sensor_type;location;lat;lon;timestamp;pressure;altitude;pressure_sealevel;temperature;humidity
34103;BME280;20381;54.498;18.206;2023-01-31T00:01:39;98137.95;;;2.25;81.29
34103;BME280;20381;54.498;18.206;2023-01-31T00:04:08;98153.41;;;2.25;81.31
34103;BME280;20381;54.498;18.206;2023-01-31T00:06:42;98164.50;;;2.27;81.28
34103;BME280;20381;54.498;18.206;2023-01-31T00:09:11;98156.77;;;2.27;81.31
34103;BME280;20381;54.498;18.206;2023-01-31T00:11:38;98138.75;;;2.27;81.33
34103;BME280;20381;54.498;18.206;2023-01-31T00:14:06;98164.50;;;2.27;81.24
34103;BME280;20381;54.498;18.206;2023-01-31T00:16:37;98164.50;;;2.27;81.23
34103;BME280;20381;54.498;18.206;2023-01-31T00:19:04;98157.66;;;2.26;81.20
34103;BME280;20381;54.498;18.206;2023-01-31T00:21:31;98158.56;;;2.25;81.17
34103;BME280;20381;54.498;18.206;2023-01-31T00:24:00;98170.15;;;2.25;81.14
34103;BME280;20381;54.498;18.206;2023-01-31T00:26:31;98176.59;;;2.25;81.12
34103;BME280;20381;54.498;18.206;2023-01-31T00:29:00;98179.62;;;2.24;81.15
34103;BME280;20381;54.498;18.206;2023-01-31T00:31:31;98172.31;;;2.24;81.08
34103;BME280;20381;54.498;18.206;2023-01-31T00:33:59;98181.33;;;2.24;81.13
34103;BME280;20381;54.498;18.206;2023-01-31T00:36:28;98189.92;;;2.24;81.13
34103;BME280;20381;54.498;18.206;2023-01-31T00:38:58;98202.34;;;2.25;81.16
34103;BME280;20381;54.498;18.206;2023-01-31T00:41:28;98210.86;;;2.27;81.12
34103;BME280;20381;54.498;18.206;2023-01-31T00:43:56;98216.77;;;2.29;81.05
34103;BME280;20381;54.498;18.206;2023-01-31T00:46:23;98215.10;;;2.28;81.05
34103;BME280;20381;54.498;18.206;2023-01-31T00:48:50;98218.97;;;2.28;81.11
34103;BME280;20381;54.498;18.206;2023-01-31T00:51:17;98218.59;;;2.27;80.94
34103;BME280;20381;54.498;18.206;2023-01-31T00:53:45;98219.08;;;2.25;80.99
34103;BME280;20381;54.498;18.206;2023-01-31T00:56:14;98224.69;;;2.24;80.91
34103;BME280;20381;54.498;18.206;2023-01-31T00:58:45;98217.00;;;2.23;80.93
34103;BME280;20381;54.498;18.206;2023-01-31T01:01:16;98227.30;;;2.23;80.94
34103;BME280;20381;54.498;18.206;2023-01-31T01:03:46;98232.45;;;2.23;80.91
34103;BME280;20381;54.498;18.206;2023-01-31T01:06:14;98228.21;;;2.22;80.87
34103;BME280;20381;54.498;18.206;2023-01-31T01:08:42;98250.48;;;2.23;80.83
34103;BME280;20381;54.498;18.206;2023-01-31T01:11:22;98242.83;;;2.21;80.80
34103;BME280;20381;54.498;18.206;2023-01-31T01:13:47;98246.28;;;2.20;80.80
34103;BME280;20381;54.498;18.206;2023-01-31T01:16:20;98241.59;;;2.20;80.78
34103;BME280;20381;54.498;18.206;2023-01-31T01:18:49;98259.23;;;2.19;80.79
34103;BME280;20381;54.498;18.206;2023-01-31T01:21:18;98248.93;;;2.19;80.78
34103;BME280;20381;54.498;18.206;2023-01-31T01:23:55;98267.83;;;2.18;80.74
34103;BME280;20381;54.498;18.206;2023-01-31T01:26:29;98264.38;;;2.19;80.69
34103;BME280;20381;54.498;18.206;2023-01-31T01:28:59;98274.68;;;2.19;80.62
34103;BME280;20381;54.498;18.206;2023-01-31T01:31:28;98280.59;;;2.21;80.64
34103;BME280;20381;54.498;18.206;2023-01-31T01:33:57;98287.94;;;2.20;80.57
34103;BME280;20381;54.498;18.206;2023-01-31T01:36:26;98291.80;;;2.20;80.56
34103;BME280;20381;54.498;18.206;2023-01-31T01:38:54;98292.30;;;2.18;80.54
34103;BME280;20381;54.498;18.206;2023-01-31T01:41:22;98295.40;;;2.16;80.52
34103;BME280;20381;54.498;18.206;2023-01-31T01:43:54;98298.84;;;2.15;80.51
34103;BME280;20381;54.498;18.206;2023-01-31T01:46:34;98302.33;;;2.14;80.44
34103;BME280;20381;54.498;18.206;2023-01-31T01:49:19;98295.89;;;2.14;80.43
34103;BME280;20381;54.498;18.206;2023-01-31T01:52:02;98307.59;;;2.11;80.42
34103;BME280;20381;54.498;18.206;2023-01-31T01:54:36;98307.06;;;2.13;80.43
34103;BME280;20381;54.498;18.206;2023-01-31T01:57:06;98309.33;;;2.10;80.35
34103;BME280;20381;54.498;18.206;2023-01-31T01:59:44;98305.89;;;2.10;80.31
34103;BME280;20381;54.498;18.206;2023-01-31T02:02:13;98319.67;;;2.09;80.29
34103;BME280;20381;54.498;18.206;2023-01-31T02:04:41;98315.09;;;2.05;80.24
34103;BME280;20381;54.498;18.206;2023-01-31T02:07:09;98315.62;;;2.01;80.42
34103;BME280;20381;54.498;18.206;2023-01-31T02:09:56;98321.11;;;2.04;80.20
34103;BME280;20381;54.498;18.206;2023-01-31T02:12:27;98324.97;;;2.04;80.20
34103;BME280;20381;54.498;18.206;2023-01-31T02:14:54;98343.86;;;2.05;80.20
34103;BME280;20381;54.498;18.206;2023-01-31T02:17:22;98340.48;;;2.03;80.11
34103;BME280;20381;54.498;18.206;2023-01-31T02:20:12;98343.44;;;2.04;80.10
34103;BME280;20381;54.498;18.206;2023-01-31T02:43:47;98356.16;;;1.96;79.82
34103;BME280;20381;54.498;18.206;2023-01-31T02:46:54;98360.88;;;1.95;79.78
34103;BME280;20381;54.498;18.206;2023-01-31T02:49:37;98373.83;;;1.94;79.71
34103;BME280;20381;54.498;18.206;2023-01-31T02:52:15;98370.84;;;1.93;79.67
34103;BME280;20381;54.498;18.206;2023-01-31T02:57:43;98392.37;;;1.90;79.60
34103;BME280;20381;54.498;18.206;2023-01-31T03:00:12;98402.67;;;1.90;79.61
34103;BME280;20381;54.498;18.206;2023-01-31T03:02:41;98387.22;;;1.90;79.52
34103;BME280;20381;54.498;18.206;2023-01-31T03:05:14;98394.66;;;1.86;79.61
34103;BME280;20381;54.498;18.206;2023-01-31T03:07:44;98397.73;;;1.84;79.56
34103;BME280;20381;54.498;18.206;2023-01-31T03:16:27;98391.81;;;1.82;79.16
34103;BME280;20381;54.498;18.206;2023-01-31T03:19:33;98394.98;;;1.77;79.25
34103;BME280;20381;54.498;18.206;2023-01-31T03:22:17;98390.80;;;1.73;79.20
34103;BME280;20381;54.498;18.206;2023-01-31T03:24:49;98388.78;;;1.69;79.16
34103;BME280;20381;54.498;18.206;2023-01-31T03:27:17;98397.24;;;1.73;79.02
34103;BME280;20381;54.498;18.206;2023-01-31T03:29:46;98396.44;;;1.71;79.00
34103;BME280;20381;54.498;18.206;2023-01-31T03:32:16;98410.59;;;1.71;78.92
34103;BME280;20381;54.498;18.206;2023-01-31T03:34:53;98416.19;;;1.70;78.95
34103;BME280;20381;54.498;18.206;2023-01-31T03:40:15;98429.89;;;1.71;78.83
34103;BME280;20381;54.498;18.206;2023-01-31T03:45:54;98443.52;;;1.74;78.60
34103;BME280;20381;54.498;18.206;2023-01-31T03:48:22;98440.60;;;1.72;78.55
34103;BME280;20381;54.498;18.206;2023-01-31T03:50:57;98442.38;;;1.70;78.47
34103;BME280;20381;54.498;18.206;2023-01-31T03:53:31;98429.99;;;1.68;78.43
34103;BME280;20381;54.498;18.206;2023-01-31T03:56:03;98451.48;;;1.67;78.39
34103;BME280;20381;54.498;18.206;2023-01-31T03:58:52;98455.34;;;1.67;78.31
34103;BME280;20381;54.498;18.206;2023-01-31T04:01:22;98466.08;;;1.66;78.28
34103;BME280;20381;54.498;18.206;2023-01-31T04:04:00;98457.08;;;1.66;78.20
34103;BME280;20381;54.498;18.206;2023-01-31T04:06:25;98467.81;;;1.66;78.15
34103;BME280;20381;54.498;18.206;2023-01-31T04:08:53;98472.06;;;1.67;78.13
34103;BME280;20381;54.498;18.206;2023-01-31T04:11:22;98472.06;;;1.67;78.05
34103;BME280;20381;54.498;18.206;2023-01-31T04:13:50;98478.95;;;1.66;78.02
34103;BME280;20381;54.498;18.206;2023-01-31T04:16:16;98475.54;;;1.66;77.89
34103;BME280;20381;54.498;18.206;2023-01-31T04:18:43;98489.34;;;1.63;77.86
34103;BME280;20381;54.498;18.206;2023-01-31T04:21:09;98497.09;;;1.62;77.82
34103;BME280;20381;54.498;18.206;2023-01-31T04:23:36;98501.40;;;1.61;77.75
34103;BME280;20381;54.498;18.206;2023-01-31T04:26:03;98503.62;;;1.59;77.71
34103;BME280;20381;54.498;18.206;2023-01-31T04:28:30;98520.34;;;1.59;77.72
34103;BME280;20381;54.498;18.206;2023-01-31T04:30:56;98520.34;;;1.59;77.66
34103;BME280;20381;54.498;18.206;2023-01-31T04:33:23;98524.59;;;1.60;77.63
34103;BME280;20381;54.498;18.206;2023-01-31T04:35:50;98526.30;;;1.61;77.64
34103;BME280;20381;54.498;18.206;2023-01-31T04:38:17;98530.54;;;1.62;77.58
34103;BME280;20381;54.498;18.206;2023-01-31T04:40:46;98528.86;;;1.61;77.54
34103;BME280;20381;54.498;18.206;2023-01-31T04:43:12;98531.11;;;1.56;77.60
34103;BME280;20381;54.498;18.206;2023-01-31T04:45:39;98542.69;;;1.56;77.59
34103;BME280;20381;54.498;18.206;2023-01-31T04:48:06;98550.41;;;1.56;77.53
34103;BME280;20381;54.498;18.206;2023-01-31T04:50:33;98546.16;;;1.55;77.57
34103;BME280;20381;54.498;18.206;2023-01-31T04:53:00;98535.97;;;1.52;77.68
34103;BME280;20381;54.498;18.206;2023-01-31T04:55:26;98535.97;;;1.52;77.68
34103;BME280;20381;54.498;18.206;2023-01-31T04:57:53;98554.78;;;1.54;77.72
34103;BME280;20381;54.498;18.206;2023-01-31T05:00:20;98550.02;;;1.55;77.67
34103;BME280;20381;54.498;18.206;2023-01-31T05:02:48;98553.87;;;1.55;77.62
34103;BME280;20381;54.498;18.206;2023-01-31T05:05:16;98550.41;;;1.56;77.61
34103;BME280;20381;54.498;18.206;2023-01-31T05:07:43;98566.66;;;1.59;77.59
34103;BME280;20381;54.498;18.206;2023-01-31T05:10:11;98555.46;;;1.60;77.55
34103;BME280;20381;54.498;18.206;2023-01-31T05:12:37;98555.46;;;1.60;77.52
34103;BME280;20381;54.498;18.206;2023-01-31T05:15:05;98569.23;;;1.59;77.57
34103;BME280;20381;54.498;18.206;2023-01-31T05:17:36;98566.66;;;1.59;77.53
34103;BME280;20381;54.498;18.206;2023-01-31T05:20:03;98590.70;;;1.58;77.55
34103;BME280;20381;54.498;18.206;2023-01-31T05:22:30;98576.55;;;1.58;77.53
34103;BME280;20381;54.498;18.206;2023-01-31T05:24:56;98580.50;;;1.54;77.60
34103;BME280;20381;54.498;18.206;2023-01-31T05:27:24;98580.09;;;1.53;77.54
34103;BME280;20381;54.498;18.206;2023-01-31T05:29:57;98579.70;;;1.52;77.57
34103;BME280;20381;54.498;18.206;2023-01-31T05:32:26;98588.38;;;1.48;77.72
34103;BME280;20381;54.498;18.206;2023-01-31T05:34:52;98593.94;;;1.49;77.75
34103;BME280;20381;54.498;18.206;2023-01-31T05:37:19;98598.66;;;1.48;77.65
34103;BME280;20381;54.498;18.206;2023-01-31T05:39:51;98601.33;;;1.45;77.75
34103;BME280;20381;54.498;18.206;2023-01-31T05:42:19;98598.84;;;1.42;77.85
34103;BME280;20381;54.498;18.206;2023-01-31T05:44:46;98599.27;;;1.43;77.86
34103;BME280;20381;54.498;18.206;2023-01-31T05:47:14;98607.37;;;1.44;77.78
34103;BME280;20381;54.498;18.206;2023-01-31T05:49:41;98609.55;;;1.43;77.74
34103;BME280;20381;54.498;18.206;2023-01-31T05:52:07;98615.98;;;1.43;77.68
34103;BME280;20381;54.498;18.206;2023-01-31T05:54:34;98622.89;;;1.41;77.79
34103;BME280;20381;54.498;18.206;2023-01-31T05:57:01;98626.27;;;1.43;77.84
34103;BME280;20381;54.498;18.206;2023-01-31T05:59:27;98639.52;;;1.44;77.71
34103;BME280;20381;54.498;18.206;2023-01-31T06:01:56;98645.95;;;1.44;77.82
34103;BME280;20381;54.498;18.206;2023-01-31T06:04:27;98648.53;;;1.44;77.80
34103;BME280;20381;54.498;18.206;2023-01-31T06:06:58;98653.70;;;1.43;77.84
34103;BME280;20381;54.498;18.206;2023-01-31T06:09:22;98655.05;;;1.41;77.88
34103;BME280;20381;54.498;18.206;2023-01-31T06:11:53;98664.05;;;1.41;77.83
34103;BME280;20381;54.498;18.206;2023-01-31T06:14:20;98673.52;;;1.39;77.73
34103;BME280;20381;54.498;18.206;2023-01-31T06:16:49;98670.14;;;1.37;77.84
34103;BME280;20381;54.498;18.206;2023-01-31T06:19:15;98678.67;;;1.39;77.79
34103;BME280;20381;54.498;18.206;2023-01-31T06:21:42;98683.00;;;1.37;77.74
34103;BME280;20381;54.498;18.206;2023-01-31T06:24:09;98683.98;;;1.33;77.82
34103;BME280;20381;54.498;18.206;2023-01-31T06:26:40;98692.67;;;1.29;77.83
34103;BME280;20381;54.498;18.206;2023-01-31T06:29:09;98691.95;;;1.24;77.95
34103;BME280;20381;54.498;18.206;2023-01-31T06:31:44;98694.60;;;1.21;77.99
34103;BME280;20381;54.498;18.206;2023-01-31T06:34:11;98703.09;;;1.23;78.00
34103;BME280;20381;54.498;18.206;2023-01-31T06:36:45;98693.70;;;1.22;77.97
34103;BME280;20381;54.498;18.206;2023-01-31T06:39:12;98705.64;;;1.24;78.20
34103;BME280;20381;54.498;18.206;2023-01-31T06:41:42;98707.31;;;1.25;78.12
34103;BME280;20381;54.498;18.206;2023-01-31T06:44:14;98704.75;;;1.25;78.08
34103;BME280;20381;54.498;18.206;2023-01-31T06:46:56;98710.81;;;1.23;78.17
34103;BME280;20381;54.498;18.206;2023-01-31T06:49:44;98709.05;;;1.25;78.08
34103;BME280;20381;54.498;18.206;2023-01-31T06:52:23;98726.16;;;1.26;78.26
34103;BME280;20381;54.498;18.206;2023-01-31T06:58:39;98728.68;;;1.29;78.21
34103;BME280;20381;54.498;18.206;2023-01-31T07:01:09;98727.05;;;1.25;78.52
34103;BME280;20381;54.498;18.206;2023-01-31T07:03:47;98734.66;;;1.29;78.83
34103;BME280;20381;54.498;18.206;2023-01-31T07:06:23;98741.16;;;1.43;78.64
34103;BME280;20381;54.498;18.206;2023-01-31T07:08:54;98741.05;;;1.47;78.57
34103;BME280;20381;54.498;18.206;2023-01-31T07:11:30;98745.30;;;1.48;78.56
34103;BME280;20381;54.498;18.206;2023-01-31T07:13:56;98732.44;;;1.48;78.49
34103;BME280;20381;54.498;18.206;2023-01-31T07:16:23;98732.38;;;1.51;78.50
34103;BME280;20381;54.498;18.206;2023-01-31T07:18:58;98728.80;;;1.57;78.69
34103;BME280;20381;54.498;18.206;2023-01-31T07:21:27;98733.72;;;1.65;78.76
34103;BME280;20381;54.498;18.206;2023-01-31T07:24:06;98732.77;;;1.69;78.77
34103;BME280;20381;54.498;18.206;2023-01-31T07:26:31;98732.14;;;1.75;78.80
34103;BME280;20381;54.498;18.206;2023-01-31T07:28:59;98737.57;;;1.81;78.89
34103;BME280;20381;54.498;18.206;2023-01-31T07:31:26;98718.95;;;1.88;78.89
34103;BME280;20381;54.498;18.206;2023-01-31T07:33:57;98735.63;;;1.89;78.90
34103;BME280;20381;54.498;18.206;2023-01-31T07:36:27;98740.60;;;1.95;78.93
34103;BME280;20381;54.498;18.206;2023-01-31T07:38:57;98748.66;;;1.99;78.96
34103;BME280;20381;54.498;18.206;2023-01-31T07:41:28;98738.56;;;2.07;79.05
34103;BME280;20381;54.498;18.206;2023-01-31T07:44:03;98744.62;;;2.06;79.39
34103;BME280;20381;54.498;18.206;2023-01-31T07:47:11;98752.91;;;2.00;79.70
34103;BME280;20381;54.498;18.206;2023-01-31T07:49:39;98746.92;;;2.15;79.52
34103;BME280;20381;54.498;18.206;2023-01-31T07:52:10;98745.88;;;2.22;79.64
34103;BME280;20381;54.498;18.206;2023-01-31T07:54:37;98749.09;;;2.29;79.41
34103;BME280;20381;54.498;18.206;2023-01-31T07:57:03;98751.94;;;2.34;79.39
34103;BME280;20381;54.498;18.206;2023-01-31T07:59:53;98763.31;;;2.42;79.49
34103;BME280;20381;54.498;18.206;2023-01-31T08:02:08;98763.19;;;2.46;79.40
34103;BME280;20381;54.498;18.206;2023-01-31T08:04:58;98757.59;;;2.47;79.30
34103;BME280;20381;54.498;18.206;2023-01-31T08:07:25;98761.48;;;2.45;79.29
34103;BME280;20381;54.498;18.206;2023-01-31T08:09:54;98742.42;;;2.51;79.39
34103;BME280;20381;54.498;18.206;2023-01-31T08:12:21;98776.75;;;2.52;79.15
34103;BME280;20381;54.498;18.206;2023-01-31T08:14:47;98775.27;;;2.44;79.17
34103;BME280;20381;54.498;18.206;2023-01-31T08:17:14;98782.28;;;2.39;79.33
34103;BME280;20381;54.498;18.206;2023-01-31T08:19:47;98773.56;;;2.43;79.12
34103;BME280;20381;54.498;18.206;2023-01-31T08:22:15;98770.69;;;2.39;79.08
34103;BME280;20381;54.498;18.206;2023-01-31T08:24:44;98774.28;;;2.34;78.98
34103;BME280;20381;54.498;18.206;2023-01-31T08:27:18;98774.64;;;2.36;79.07
34103;BME280;20381;54.498;18.206;2023-01-31T08:29:45;98773.88;;;2.48;79.02
34103;BME280;20381;54.498;18.206;2023-01-31T08:32:14;98776.75;;;2.52;79.44
34103;BME280;20381;54.498;18.206;2023-01-31T08:34:40;98775.31;;;2.71;79.42
34103;BME280;20381;54.498;18.206;2023-01-31T08:37:08;98774.77;;;2.89;79.22
34103;BME280;20381;54.498;18.206;2023-01-31T08:39:36;98787.36;;;2.99;79.23
34103;BME280;20381;54.498;18.206;2023-01-31T08:42:04;98777.96;;;3.11;79.05
34103;BME280;20381;54.498;18.206;2023-01-31T08:44:36;98791.34;;;3.09;78.55
34103;BME280;20381;54.498;18.206;2023-01-31T08:47:05;98789.13;;;2.97;78.60
34103;BME280;20381;54.498;18.206;2023-01-31T08:49:31;98805.34;;;2.87;78.78
34103;BME280;20381;54.498;18.206;2023-01-31T08:52:00;98798.94;;;2.85;78.97
34103;BME280;20381;54.498;18.206;2023-01-31T08:54:26;98785.46;;;2.90;78.95
34103;BME280;20381;54.498;18.206;2023-01-31T08:56:53;98792.81;;;2.89;78.65
34103;BME280;20381;54.498;18.206;2023-01-31T08:59:20;98804.96;;;2.86;78.50
34103;BME280;20381;54.498;18.206;2023-01-31T09:01:46;98799.94;;;2.81;78.53
34103;BME280;20381;54.498;18.206;2023-01-31T09:04:13;98814.86;;;2.85;78.59
34103;BME280;20381;54.498;18.206;2023-01-31T09:06:42;98806.66;;;2.85;78.65
34103;BME280;20381;54.498;18.206;2023-01-31T09:09:10;98804.09;;;2.85;78.42
34103;BME280;20381;54.498;18.206;2023-01-31T09:11:37;98804.41;;;2.89;78.51
34103;BME280;20381;54.498;18.206;2023-01-31T09:14:08;98807.28;;;2.94;78.42
34103;BME280;20381;54.498;18.206;2023-01-31T09:16:38;98816.72;;;2.95;78.12
34103;BME280;20381;54.498;18.206;2023-01-31T09:19:08;98817.69;;;2.90;78.15
34103;BME280;20381;54.498;18.206;2023-01-31T09:21:35;98816.02;;;2.89;78.05
34103;BME280;20381;54.498;18.206;2023-01-31T09:24:01;98818.59;;;2.89;77.98
34103;BME280;20381;54.498;18.206;2023-01-31T09:26:29;98829.77;;;2.88;77.92
34103;BME280;20381;54.498;18.206;2023-01-31T09:28:57;98836.16;;;2.91;77.89
34103;BME280;20381;54.498;18.206;2023-01-31T09:31:30;98839.03;;;2.96;77.94
34103;BME280;20381;54.498;18.206;2023-01-31T09:34:01;98822.48;;;3.03;77.76
34103;BME280;20381;54.498;18.206;2023-01-31T09:36:29;98822.13;;;3.13;77.63
34103;BME280;20381;54.498;18.206;2023-01-31T09:39:05;98827.76;;;3.26;77.70
34103;BME280;20381;54.498;18.206;2023-01-31T09:41:46;98822.09;;;3.42;77.64
34103;BME280;20381;54.498;18.206;2023-01-31T09:50:19;98836.80;;;3.40;77.00
34103;BME280;20381;54.498;18.206;2023-01-31T09:53:23;98825.03;;;3.18;76.79
34103;BME280;20381;54.498;18.206;2023-01-31T10:27:25;98816.56;;;4.04;75.30
34103;BME280;20381;54.498;18.206;2023-01-31T10:39:44;98824.56;;;3.71;74.35
34103;BME280;20381;54.498;18.206;2023-01-31T10:45:30;98813.66;;;3.50;73.94
34103;BME280;20381;54.498;18.206;2023-01-31T10:48:22;98808.31;;;3.43;73.59
34103;BME280;20381;54.498;18.206;2023-01-31T10:54:32;98805.73;;;3.43;73.63
34103;BME280;20381;54.498;18.206;2023-01-31T10:57:02;98806.43;;;3.48;73.42
34103;BME280;20381;54.498;18.206;2023-01-31T10:59:36;98808.59;;;3.47;73.25
34103;BME280;20381;54.498;18.206;2023-01-31T11:02:23;98803.53;;;3.57;73.37
34103;BME280;20381;54.498;18.206;2023-01-31T11:04:55;98799.55;;;3.60;72.86
34103;BME280;20381;54.498;18.206;2023-01-31T11:10:25;98794.99;;;3.55;72.36
34103;BME280;20381;54.498;18.206;2023-01-31T11:19:50;98790.95;;;3.48;71.82
34103;BME280;20381;54.498;18.206;2023-01-31T11:22:30;98790.35;;;3.53;72.00
34103;BME280;20381;54.498;18.206;2023-01-31T11:25:06;98784.11;;;3.84;72.02
34103;BME280;20381;54.498;18.206;2023-01-31T11:27:39;98782.07;;;4.05;71.72
34103;BME280;20381;54.498;18.206;2023-01-31T11:30:24;98781.27;;;4.03;71.41
34103;BME280;20381;54.498;18.206;2023-01-31T11:32:56;98778.05;;;4.10;71.49
34103;BME280;20381;54.498;18.206;2023-01-31T11:44:58;98765.87;;;3.76;71.11
34103;BME280;20381;54.498;18.206;2023-01-31T11:50:39;98761.75;;;3.46;70.49
34103;BME280;20381;54.498;18.206;2023-01-31T11:53:25;98762.55;;;3.48;70.52
34103;BME280;20381;54.498;18.206;2023-01-31T11:56:07;98749.37;;;3.55;70.33
34103;BME280;20381;54.498;18.206;2023-01-31T11:58:41;98728.42;;;3.65;70.41
34103;BME280;20381;54.498;18.206;2023-01-31T12:01:22;98727.03;;;3.79;70.17
34103;BME280;20381;54.498;18.206;2023-01-31T12:03:58;98722.44;;;3.88;69.82
34103;BME280;20381;54.498;18.206;2023-01-31T12:06:43;98709.62;;;4.08;70.13
34103;BME280;20381;54.498;18.206;2023-01-31T12:09:20;98708.05;;;4.28;69.93
34103;BME280;20381;54.498;18.206;2023-01-31T12:11:59;98694.72;;;4.38;69.69
34103;BME280;20381;54.498;18.206;2023-01-31T12:14:39;98694.33;;;4.25;69.41
34103;BME280;20381;54.498;18.206;2023-01-31T12:17:12;98682.00;;;4.10;69.25
34103;BME280;20381;54.498;18.206;2023-01-31T12:36:25;98685.75;;;3.29;68.66
34103;BME280;20381;54.498;18.206;2023-01-31T12:45:11;98672.52;;;2.62;68.43
34103;BME280;20381;54.498;18.206;2023-01-31T13:05:50;98633.25;;;3.30;69.07
34103;BME280;20381;54.498;18.206;2023-01-31T14:53:00;98564.48;;;2.03;74.89
34103;BME280;20381;54.498;18.206;2023-01-31T14:55:48;98552.57;;;1.98;74.46
34103;BME280;20381;54.498;18.206;2023-01-31T14:58:30;98544.84;;;1.98;74.80
34103;BME280;20381;54.498;18.206;2023-01-31T15:01:05;98539.95;;;2.04;74.87
34103;BME280;20381;54.498;18.206;2023-01-31T15:03:36;98539.56;;;2.03;75.05
34103;BME280;20381;54.498;18.206;2023-01-31T15:06:32;98543.88;;;2.03;75.17
34103;BME280;20381;54.498;18.206;2023-01-31T15:11:55;98516.63;;;1.95;75.19
34103;BME280;20381;54.498;18.206;2023-01-31T15:22:45;98521.38;;;1.81;75.79
34103;BME280;20381;54.498;18.206;2023-01-31T15:25:32;98523.23;;;1.76;75.85
34103;BME280;20381;54.498;18.206;2023-01-31T15:28:04;98516.61;;;1.69;75.83
34103;BME280;20381;54.498;18.206;2023-01-31T15:33:56;98503.52;;;1.62;76.29
34103;BME280;20381;54.498;18.206;2023-01-31T15:39:39;98496.28;;;1.60;76.33
34103;BME280;20381;54.498;18.206;2023-01-31T15:42:22;98492.62;;;1.53;76.48
34103;BME280;20381;54.498;18.206;2023-01-31T15:45:13;98483.00;;;1.45;76.62
34103;BME280;20381;54.498;18.206;2023-01-31T15:48:16;98479.34;;;1.39;77.07
34103;BME280;20381;54.498;18.206;2023-01-31T15:50:56;98464.80;;;1.38;76.90
34103;BME280;20381;54.498;18.206;2023-01-31T15:53:26;98455.09;;;1.33;77.09
34103;BME280;20381;54.498;18.206;2023-01-31T15:55:56;98462.00;;;1.31;77.14
34103;BME280;20381;54.498;18.206;2023-01-31T15:58:29;98448.38;;;1.29;77.46
34103;BME280;20381;54.498;18.206;2023-01-31T16:01:00;98444.42;;;1.32;77.52
34103;BME280;20381;54.498;18.206;2023-01-31T16:03:28;98448.21;;;1.33;77.39
34103;BME280;20381;54.498;18.206;2023-01-31T16:08:58;98422.56;;;1.32;77.62
34103;BME280;20381;54.498;18.206;2023-01-31T16:11:27;98408.42;;;1.32;77.70
34103;BME280;20381;54.498;18.206;2023-01-31T16:13:59;98391.80;;;1.29;77.89
34103;BME280;20381;54.498;18.206;2023-01-31T16:16:33;98383.28;;;1.27;77.87
34103;BME280;20381;54.498;18.206;2023-01-31T16:19:01;98381.68;;;1.23;78.07
34103;BME280;20381;54.498;18.206;2023-01-31T16:21:32;98382.67;;;1.19;78.23
34103;BME280;20381;54.498;18.206;2023-01-31T16:24:07;98375.92;;;1.15;78.37
34103;BME280;20381;54.498;18.206;2023-01-31T16:26:40;98380.30;;;1.13;78.44
34103;BME280;20381;54.498;18.206;2023-01-31T16:29:19;98373.45;;;1.11;78.69
34103;BME280;20381;54.498;18.206;2023-01-31T16:31:53;98358.55;;;1.09;78.65
34103;BME280;20381;54.498;18.206;2023-01-31T16:34:33;98350.13;;;1.04;78.73
34103;BME280;20381;54.498;18.206;2023-01-31T16:37:07;98336.95;;;1.00;79.01
34103;BME280;20381;54.498;18.206;2023-01-31T16:39:45;98344.66;;;1.00;79.34
34103;BME280;20381;54.498;18.206;2023-01-31T16:42:21;98338.34;;;0.97;79.33
34103;BME280;20381;54.498;18.206;2023-01-31T16:44:58;98343.09;;;0.96;79.58
34103;BME280;20381;54.498;18.206;2023-01-31T16:47:51;98338.78;;;0.97;79.74
34103;BME280;20381;54.498;18.206;2023-01-31T16:50:27;98330.23;;;0.96;79.97
34103;BME280;20381;54.498;18.206;2023-01-31T16:56:19;98325.09;;;0.96;80.51
34103;BME280;20381;54.498;18.206;2023-01-31T16:58:57;98311.45;;;0.94;80.65
34103;BME280;20381;54.498;18.206;2023-01-31T17:01:31;98303.73;;;0.94;80.86
34103;BME280;20381;54.498;18.206;2023-01-31T17:04:18;98297.80;;;0.92;81.18
34103;BME280;20381;54.498;18.206;2023-01-31T17:07:02;98301.66;;;0.92;81.04
34103;BME280;20381;54.498;18.206;2023-01-31T17:09:38;98295.23;;;0.92;81.10
34103;BME280;20381;54.498;18.206;2023-01-31T17:12:31;98272.20;;;0.89;81.26
34103;BME280;20381;54.498;18.206;2023-01-31T17:15:22;98274.38;;;0.88;81.63
34103;BME280;20381;54.498;18.206;2023-01-31T17:17:55;98264.55;;;0.87;81.76
34103;BME280;20381;54.498;18.206;2023-01-31T17:20:50;98255.20;;;0.85;82.01
34103;BME280;20381;54.498;18.206;2023-01-31T17:23:49;98247.40;;;0.88;82.28
34103;BME280;20381;54.498;18.206;2023-01-31T17:26:38;98247.30;;;0.91;82.50
34103;BME280;20381;54.498;18.206;2023-01-31T17:29:17;98235.45;;;0.87;82.71
34103;BME280;20381;54.498;18.206;2023-01-31T17:31:49;98225.94;;;0.89;82.91
34103;BME280;20381;54.498;18.206;2023-01-31T17:34:28;98209.80;;;0.85;82.88
34103;BME280;20381;54.498;18.206;2023-01-31T17:42:43;98186.31;;;0.83;83.29
34103;BME280;20381;54.498;18.206;2023-01-31T17:47:57;98186.03;;;0.79;83.86
34103;BME280;20381;54.498;18.206;2023-01-31T17:50:51;98181.00;;;0.76;83.86
34103;BME280;20381;54.498;18.206;2023-01-31T17:53:16;98165.75;;;0.70;83.86
34103;BME280;20381;54.498;18.206;2023-01-31T18:08:45;98126.28;;;0.72;84.66
34103;BME280;20381;54.498;18.206;2023-01-31T18:12:28;98126.05;;;0.66;84.81
34103;BME280;20381;54.498;18.206;2023-01-31T18:15:29;98115.38;;;0.65;85.18
34103;BME280;20381;54.498;18.206;2023-01-31T18:17:56;98094.84;;;0.65;85.37
34103;BME280;20381;54.498;18.206;2023-01-31T18:20:32;98105.91;;;0.68;85.37
34103;BME280;20381;54.498;18.206;2023-01-31T18:23:06;98084.08;;;0.68;85.42
34103;BME280;20381;54.498;18.206;2023-01-31T18:25:38;98075.95;;;0.66;85.40
34103;BME280;20381;54.498;18.206;2023-01-31T18:28:13;98059.67;;;0.68;85.48
34103;BME280;20381;54.498;18.206;2023-01-31T18:30:46;98048.70;;;0.62;85.67
34103;BME280;20381;54.498;18.206;2023-01-31T18:33:17;98051.31;;;0.61;85.77
34103;BME280;20381;54.498;18.206;2023-01-31T18:36:19;98038.02;;;0.61;85.84
34103;BME280;20381;54.498;18.206;2023-01-31T18:38:30;98037.53;;;0.63;85.84